Time;durP1;ratioP1;P1;durP2;ratioP2;P2;SDS_P1;SDS_P2;PMS_P1;PMS_P2;Temp;Humidity;BMP_temperature;BMP_pressure;BME280_temperature;BME280_humidity;BME280_pressure;Samples;Min_cycle;Max_cycle;Signal;HPM_P1;HPM_P2
2020/12/25 00:01:01;;;;;;;1.48;0.77;;;15.70;71.00;;;;;;4987903;28;20060;-66
2020/12/25 00:03:38;;;;;;;2.25;1.20;;;15.70;70.80;;;;;;5006820;28;20120;-65
2020/12/25 00:06:12;;;;;;;2.20;0.85;;;15.70;71.00;;;;;;5010757;28;20142;-65
2020/12/25 00:08:44;;;;;;;1.25;0.80;;;15.80;70.80;;;;;;5004020;28;20073;-64
2020/12/25 00:11:19;;;;;;;3.35;1.05;;;15.80;70.90;;;;;;5009705;28;20041;-65
2020/12/25 00:13:49;;;;;;;2.53;0.90;;;15.80;70.80;;;;;;5010293;28;20049;-64
2020/12/25 00:16:26;;;;;;;3.90;0.90;;;15.80;70.70;;;;;;5010324;28;20046;-64
2020/12/25 00:18:58;;;;;;;5.55;1.30;;;15.80;70.80;;;;;;4986762;28;20042;-64
2020/12/25 00:21:31;;;;;;;1.80;0.88;;;15.80;70.40;;;;;;4997782;28;20041;-64
2020/12/25 00:24:01;;;;;;;3.00;1.27;;;15.90;70.70;;;;;;5000458;28;20045;-65
2020/12/25 00:26:32;;;;;;;1.58;0.80;;;15.90;70.70;;;;;;5009878;28;20052;-63
2020/12/25 00:29:03;;;;;;;1.13;0.80;;;15.80;70.70;;;;;;5005055;28;20616;-64
2020/12/25 00:31:38;;;;;;;3.70;1.10;;;15.90;70.60;;;;;;5005927;28;20133;-64
2020/12/25 00:34:13;;;;;;;1.88;0.70;;;15.90;70.80;;;;;;5011465;28;20493;-64
2020/12/25 00:36:46;;;;;;;1.48;0.88;;;16.00;70.70;;;;;;5009644;28;20042;-64
2020/12/25 00:39:19;;;;;;;2.35;1.10;;;16.00;70.70;;;;;;5011898;28;20133;-65
2020/12/25 00:41:50;;;;;;;3.03;0.80;;;16.00;70.60;;;;;;5012653;28;20045;-64
2020/12/25 00:44:22;;;;;;;2.63;1.08;;;16.00;70.50;;;;;;5008002;28;20157;-64
2020/12/25 00:46:51;;;;;;;4.73;1.00;;;16.00;70.30;;;;;;5011134;28;20048;-64
2020/12/25 00:49:23;;;;;;;2.40;0.82;;;16.00;70.40;;;;;;4988205;28;20058;-66
2020/12/25 00:51:54;;;;;;;2.40;1.10;;;16.10;70.40;;;;;;5005639;28;20103;-65
2020/12/25 00:54:26;;;;;;;;;;;16.10;70.40;;;;;;5015319;28;20046;-65
2020/12/25 00:57:23;;;;;;;0.98;0.77;;;16.10;70.10;;;;;;5012381;28;20024;-63
2020/12/25 01:00:06;;;;;;;5.18;1.38;;;16.00;69.90;;;;;;4994008;28;20050;-65
2020/12/25 01:02:38;;;;;;;2.58;0.85;;;16.10;70.30;;;;;;5016593;28;22204;-65
2020/12/25 01:05:08;;;;;;;6.20;1.35;;;16.10;70.10;;;;;;4997704;28;20593;-64
2020/12/25 01:07:40;;;;;;;2.58;1.20;;;16.10;70.20;;;;;;5014073;28;20049;-64
2020/12/25 01:10:11;;;;;;;5.55;1.42;;;16.10;70.80;;;;;;5007622;28;20150;-64
2020/12/25 01:12:42;;;;;;;5.50;1.65;;;16.20;70.00;;;;;;5011432;28;20056;-65
2020/12/25 01:15:12;;;;;;;1.92;1.00;;;16.20;70.20;;;;;;5017079;28;20042;-65
2020/12/25 01:17:45;;;;;;;4.15;1.35;;;16.20;70.20;;;;;;5015446;28;20048;-65
2020/12/25 01:20:18;;;;;;;2.97;1.08;;;16.30;70.20;;;;;;4995289;28;20080;-65
2020/12/25 01:22:49;;;;;;;2.53;1.33;;;16.30;70.10;;;;;;5017212;28;20067;-65
2020/12/25 01:25:19;;;;;;;2.83;1.40;;;16.30;70.10;;;;;;5014024;28;20123;-64
2020/12/25 01:27:48;;;;;;;3.63;1.15;;;16.40;70.00;;;;;;5014515;28;20564;-65
2020/12/25 01:30:19;;;;;;;5.70;1.83;;;16.40;70.10;;;;;;5008890;28;20049;-65
2020/12/25 01:32:49;;;;;;;2.25;1.27;;;16.40;70.00;;;;;;5020732;28;20049;-66
2020/12/25 01:35:22;;;;;;;3.33;1.65;;;16.40;70.00;;;;;;5027230;28;20042;-65
2020/12/25 01:37:52;;;;;;;2.83;1.75;;;16.50;69.90;;;;;;5014855;28;20042;-66
2020/12/25 01:40:22;;;;;;;3.13;1.65;;;16.50;69.90;;;;;;5007606;28;20486;-66
2020/12/25 01:42:52;;;;;;;2.97;1.63;;;16.50;69.90;;;;;;5015914;28;20050;-65
2020/12/25 01:45:23;;;;;;;3.88;2.33;;;16.60;69.90;;;;;;5009714;28;20045;-66
2020/12/25 01:47:56;;;;;;;3.42;1.95;;;16.60;69.90;;;;;;5017146;28;20041;-67
2020/12/25 01:50:28;;;;;;;3.97;2.55;;;16.60;69.90;;;;;;5018722;28;20054;-68
2020/12/25 01:53:01;;;;;;;4.15;2.47;;;16.60;69.80;;;;;;5016782;28;20046;-67
2020/12/25 01:55:33;;;;;;;7.90;3.03;;;16.70;69.80;;;;;;5005429;28;20073;-70
2020/12/25 01:58:05;;;;;;;4.15;2.60;;;16.70;69.70;;;;;;5012110;28;20120;-68
2020/12/25 02:00:36;;;;;;;3.10;2.20;;;16.70;69.70;;;;;;5007161;28;20030;-67
2020/12/25 02:03:06;;;;;;;7.07;3.22;;;16.80;69.80;;;;;;5013147;28;20042;-66
2020/12/25 02:05:38;;;;;;;5.93;3.28;;;16.80;69.70;;;;;;5009402;28;20124;-67
2020/12/25 02:08:09;;;;;;;4.88;2.50;;;16.80;69.70;;;;;;5012154;28;20073;-67
2020/12/25 02:10:42;;;;;;;3.00;2.63;;;16.80;69.60;;;;;;5012417;28;20033;-68
2020/12/25 02:13:14;;;;;;;4.15;2.75;;;16.80;69.60;;;;;;5009293;28;20053;-67
2020/12/25 02:15:44;;;;;;;5.43;2.85;;;16.90;69.60;;;;;;5008712;28;20068;-68
2020/12/25 02:18:16;;;;;;;6.55;3.15;;;16.90;69.60;;;;;;5011253;28;20506;-68
2020/12/25 02:20:47;;;;;;;5.05;3.35;;;16.90;69.60;;;;;;5013608;28;20132;-66
2020/12/25 02:23:18;;;;;;;4.03;2.90;;;16.90;69.60;;;;;;5013260;28;20120;-67
2020/12/25 02:25:49;;;;;;;4.18;2.97;;;17.00;69.50;;;;;;5005727;28;20076;-68
2020/12/25 02:28:18;;;;;;;5.82;3.33;;;17.00;69.40;;;;;;5006289;28;20124;-66
2020/12/25 02:30:48;;;;;;;4.15;2.85;;;17.10;69.60;;;;;;5015902;28;20759;-67
2020/12/25 02:33:18;;;;;;;3.78;3.17;;;17.10;69.40;;;;;;5006960;28;20050;-68
2020/12/25 02:35:50;;;;;;;3.90;3.20;;;17.10;69.50;;;;;;4988993;28;20042;-68
2020/12/25 02:38:24;;;;;;;3.25;2.88;;;17.20;69.40;;;;;;5007392;28;20046;-66
2020/12/25 02:40:56;;;;;;;4.97;3.35;;;17.20;69.40;;;;;;4991217;28;20050;-68
2020/12/25 02:43:27;;;;;;;;;;;17.20;69.40;;;;;;4997258;28;20409;-68
2020/12/25 02:45:57;;;;;;;3.83;3.20;;;17.20;69.30;;;;;;4999683;28;19947;-67
2020/12/25 02:48:27;;;;;;;5.20;2.97;;;17.20;69.10;;;;;;4992798;28;20056;-65
2020/12/25 02:50:58;;;;;;;4.95;3.25;;;17.30;69.20;;;;;;4997810;28;21057;-65
2020/12/25 02:53:29;;;;;;;4.53;3.72;;;17.30;69.20;;;;;;5013390;28;20045;-66
2020/12/25 02:55:59;;;;;;;6.43;3.70;;;17.30;69.10;;;;;;5006259;28;20151;-65
2020/12/25 02:58:31;;;;;;;4.30;3.88;;;17.30;69.00;;;;;;5017724;28;20045;-67
2020/12/25 03:01:01;;;;;;;7.38;4.32;;;17.40;69.20;;;;;;5022542;28;20037;-68
2020/12/25 03:03:33;;;;;;;4.13;3.72;;;17.40;69.00;;;;;;5011380;28;20474;-67
2020/12/25 03:06:05;;;;;;;5.40;4.10;;;17.50;69.10;;;;;;4998627;28;20119;-66
2020/12/25 03:08:36;;;;;;;4.10;3.70;;;17.50;69.10;;;;;;5009244;28;20137;-68
2020/12/25 03:11:09;;;;;;;4.10;3.67;;;17.50;68.90;;;;;;4992071;28;20287;-68
2020/12/25 03:13:39;;;;;;;4.65;3.65;;;17.50;68.80;;;;;;5021723;28;20088;-66
2020/12/25 03:16:10;;;;;;;6.13;4.65;;;17.60;68.90;;;;;;5016614;28;20041;-67
2020/12/25 03:18:43;;;;;;;4.32;3.45;;;17.60;68.90;;;;;;5017965;28;20041;-69
2020/12/25 03:21:14;;;;;;;5.55;3.75;;;17.70;68.90;;;;;;4988348;28;20140;-69
2020/12/25 03:23:44;;;;;;;4.65;4.25;;;17.70;68.80;;;;;;5014240;28;20037;-67
2020/12/25 03:26:15;;;;;;;5.78;4.00;;;17.70;68.80;;;;;;5011107;28;20052;-69
2020/12/25 03:28:45;;;;;;;6.03;3.80;;;17.80;68.90;;;;;;5003816;28;20073;-65
2020/12/25 03:31:15;;;;;;;4.53;4.00;;;17.80;68.80;;;;;;5013674;28;20345;-70
2020/12/25 03:33:46;;;;;;;5.15;3.28;;;17.80;68.80;;;;;;5008688;28;20041;-66
2020/12/25 03:36:16;;;;;;;6.68;3.75;;;17.90;68.70;;;;;;4994729;28;20050;-65
2020/12/25 03:38:47;;;;;;;;;;;17.90;68.70;;;;;;5002309;28;20559;-68
2020/12/25 03:41:17;;;;;;;5.25;3.67;;;17.90;68.70;;;;;;5013601;28;20669;-67
2020/12/25 03:43:52;;;;;;;3.95;3.55;;;17.90;68.60;;;;;;5003133;28;20037;-69
2020/12/25 03:46:21;;;;;;;4.68;3.42;;;18.00;68.50;;;;;;5009297;28;20044;-67
2020/12/25 03:48:51;;;;;;;3.20;2.90;;;18.00;68.50;;;;;;5008242;28;20052;-66
2020/12/25 03:51:23;;;;;;;5.22;3.40;;;18.00;68.30;;;;;;5011525;28;20042;-68
2020/12/25 03:53:54;;;;;;;5.20;2.78;;;18.00;68.30;;;;;;5025569;28;20591;-68
2020/12/25 03:56:25;;;;;;;3.10;2.70;;;18.10;68.30;;;;;;5002963;28;20049;-66
2020/12/25 03:59:00;;;;;;;4.88;3.10;;;18.10;68.30;;;;;;5011777;28;20044;-70
2020/12/25 04:01:29;;;;;;;5.38;3.20;;;18.10;68.20;;;;;;5013688;28;20079;-69
2020/12/25 04:04:00;;;;;;;5.93;3.17;;;18.10;68.10;;;;;;5009503;28;20053;-66
2020/12/25 04:06:31;;;;;;;6.18;2.67;;;18.20;68.10;;;;;;5019544;28;20130;-65
2020/12/25 04:09:02;;;;;;;2.88;2.47;;;18.20;68.10;;;;;;5021851;28;20049;-68
2020/12/25 04:11:33;;;;;;;2.88;2.63;;;18.20;68.10;;;;;;5007691;28;20042;-65
2020/12/25 04:14:03;;;;;;;5.68;3.75;;;18.30;68.00;;;;;;4996102;28;20145;-67
2020/12/25 04:16:34;;;;;;;6.07;5.47;;;18.30;68.00;;;;;;5008372;28;20488;-68
2020/12/25 04:19:06;;;;;;;5.97;5.38;;;18.30;67.90;;;;;;5017821;28;20125;-68
2020/12/25 04:21:41;;;;;;;6.05;3.92;;;18.30;67.90;;;;;;5009528;28;20470;-67
2020/12/25 04:24:11;;;;;;;6.10;5.53;;;18.30;67.90;;;;;;5013456;28;20423;-65
2020/12/25 04:26:47;;;;;;;4.60;4.15;;;18.40;67.80;;;;;;5015141;28;20722;-67
2020/12/25 04:29:17;;;;;;;2.80;2.42;;;18.40;67.80;;;;;;5020599;28;20333;-67
2020/12/25 04:31:47;;;;;;;5.07;2.85;;;18.40;67.60;;;;;;5009560;28;20565;-66
2020/12/25 04:34:19;;;;;;;4.03;3.15;;;18.50;67.70;;;;;;5014327;28;20042;-65
2020/12/25 04:36:50;;;;;;;3.17;2.55;;;18.50;67.60;;;;;;5012542;28;20121;-67
2020/12/25 04:39:23;;;;;;;4.35;3.95;;;18.50;67.60;;;;;;5007529;28;20046;-68
2020/12/25 04:41:56;;;;;;;5.75;5.28;;;18.50;67.60;;;;;;5007100;28;20038;-66
2020/12/25 04:44:28;;;;;;;5.40;4.90;;;18.50;67.50;;;;;;5011250;28;20042;-67
2020/12/25 04:47:08;;;;;;;3.88;3.58;;;18.50;67.40;;;;;;5003639;28;20034;-66
2020/12/25 04:49:41;;;;;;;4.70;2.80;;;18.60;67.40;;;;;;5007010;28;20528;-65
2020/12/25 04:52:12;;;;;;;3.45;2.30;;;18.60;67.30;;;;;;5006360;28;20068;-67
2020/12/25 04:54:42;;;;;;;2.70;1.90;;;18.60;67.30;;;;;;5011266;28;20065;-66
2020/12/25 04:57:12;;;;;;;4.72;2.22;;;18.60;67.30;;;;;;5011185;28;20129;-67
2020/12/25 04:59:44;;;;;;;5.53;2.47;;;18.70;67.20;;;;;;5008411;28;20044;-65
2020/12/25 05:02:15;;;;;;;8.40;3.55;;;18.70;67.30;;;;;;5016667;28;20048;-68
2020/12/25 05:04:47;;;;;;;6.05;2.20;;;18.70;67.10;;;;;;5009605;28;20045;-67
2020/12/25 05:07:21;;;;;;;2.53;1.80;;;18.70;67.10;;;;;;5007230;28;20061;-66
2020/12/25 05:09:59;;;;;;;3.63;2.00;;;18.70;67.00;;;;;;5019677;28;20083;-69
2020/12/25 05:12:33;;;;;;;3.33;1.75;;;18.70;67.00;;;;;;5010601;28;20041;-65
2020/12/25 05:15:10;;;;;;;2.72;1.65;;;18.70;67.00;;;;;;5019277;28;20797;-67
2020/12/25 05:17:43;;;;;;;2.50;1.55;;;18.80;67.00;;;;;;5016159;28;20100;-68
2020/12/25 05:20:16;;;;;;;5.15;2.58;;;18.80;67.10;;;;;;5017675;28;20295;-65
2020/12/25 05:22:47;;;;;;;3.05;2.08;;;18.80;66.90;;;;;;5020139;28;20095;-68
2020/12/25 05:25:19;;;;;;;4.30;1.73;;;18.80;66.80;;;;;;4997275;28;20068;-66
2020/12/25 05:27:51;;;;;;;3.03;1.98;;;18.80;66.80;;;;;;5006721;28;20885;-69
2020/12/25 05:30:23;;;;;;;5.13;1.92;;;18.80;66.70;;;;;;5010858;28;20052;-66
2020/12/25 05:32:55;;;;;;;3.85;2.10;;;18.80;66.60;;;;;;4989013;28;20046;-68
2020/12/25 05:35:32;;;;;;;2.13;1.58;;;18.90;66.60;;;;;;5010150;28;20046;-65
2020/12/25 05:38:12;;;;;;;2.45;1.52;;;18.90;66.60;;;;;;4992562;28;20149;-68
2020/12/25 05:40:43;;;;;;;3.15;1.63;;;18.90;66.60;;;;;;5012094;28;20096;-69
2020/12/25 05:43:20;;;;;;;1.63;1.20;;;18.90;66.60;;;;;;5006339;28;20394;-69
2020/12/25 05:45:51;;;;;;;1.85;1.33;;;18.90;66.60;;;;;;5014554;28;20089;-66
2020/12/25 05:48:21;;;;;;;1.92;1.48;;;19.00;66.50;;;;;;5021376;28;20132;-68
2020/12/25 05:50:52;;;;;;;1.55;1.17;;;19.00;66.40;;;;;;5004997;28;20041;-68
2020/12/25 05:53:22;;;;;;;1.60;1.00;;;19.00;66.50;;;;;;5011668;28;20060;-68
2020/12/25 05:55:53;;;;;;;6.60;1.73;;;19.10;66.30;;;;;;5020514;28;20048;-68
2020/12/25 05:58:29;;;;;;;2.05;1.48;;;19.10;66.30;;;;;;5020182;28;20041;-68
2020/12/25 06:01:01;;;;;;;1.25;1.00;;;19.10;66.20;;;;;;5008318;28;20045;-68
2020/12/25 06:03:32;;;;;;;;;;;19.10;66.20;;;;;;5019800;28;20224;-68
2020/12/25 06:06:13;;;;;;;2.20;1.33;;;19.20;66.30;;;;;;5012099;28;19931;-67
2020/12/25 06:08:59;;;;;;;1.63;1.23;;;19.20;66.10;;;;;;5008351;28;20525;-68
2020/12/25 06:11:33;;;;;;;2.17;1.58;;;19.20;66.10;;;;;;5018171;28;20049;-68
2020/12/25 06:14:02;;;;;;;2.40;1.30;;;19.20;66.00;;;;;;5004540;28;20417;-68
2020/12/25 06:16:35;;;;;;;2.42;1.30;;;19.20;66.10;;;;;;5017032;28;20128;-66
2020/12/25 06:19:12;;;;;;;1.15;1.05;;;19.10;66.00;;;;;;5021660;28;20050;-66
2020/12/25 06:22:05;;;;;;;1.80;1.05;;;19.20;65.90;;;;;;5008283;28;20061;-68
2020/12/25 06:24:37;;;;;;;1.75;1.38;;;19.20;65.80;;;;;;5010517;28;20054;-68
2020/12/25 06:27:07;;;;;;;1.55;1.30;;;19.30;65.80;;;;;;5013446;28;20041;-66
2020/12/25 06:29:43;;;;;;;2.92;1.75;;;19.30;65.80;;;;;;5011876;28;20128;-68
2020/12/25 06:32:14;;;;;;;4.57;1.50;;;19.30;65.70;;;;;;5023381;28;20045;-68
2020/12/25 06:34:47;;;;;;;1.67;1.15;;;19.30;65.60;;;;;;5021076;28;20433;-69
2020/12/25 06:37:19;;;;;;;3.70;1.10;;;19.30;65.50;;;;;;5006975;28;20042;-68
2020/12/25 06:39:55;;;;;;;2.17;1.05;;;19.30;65.40;;;;;;5007406;28;20034;-68
2020/12/25 06:42:37;;;;;;;0.93;0.82;;;19.30;65.40;;;;;;5011115;28;20046;-68
2020/12/25 06:45:12;;;;;;;5.15;1.38;;;19.30;65.40;;;;;;5009728;28;20157;-68
2020/12/25 06:47:42;;;;;;;3.22;1.35;;;19.30;65.40;;;;;;5008185;28;20049;-69
2020/12/25 06:50:15;;;;;;;0.95;0.80;;;19.30;65.20;;;;;;4995556;28;20146;-68
2020/12/25 06:52:54;;;;;;;3.05;0.98;;;19.40;65.10;;;;;;5011520;28;20049;-69
2020/12/25 06:55:25;;;;;;;5.18;1.77;;;19.40;65.20;;;;;;5008784;28;20041;-66
2020/12/25 06:57:58;;;;;;;2.63;1.10;;;19.40;65.00;;;;;;5004179;28;20129;-68
2020/12/25 07:00:29;;;;;;;2.35;1.15;;;19.40;64.90;;;;;;5011987;28;20393;-68
2020/12/25 07:03:25;;;;;;;2.72;1.45;;;19.40;64.90;;;;;;5016733;28;20046;-68
2020/12/25 07:05:56;;;;;;;2.60;1.08;;;19.40;65.00;;;;;;5015221;28;20153;-68
2020/12/25 07:08:31;;;;;;;2.72;1.20;;;19.40;64.90;;;;;;5020737;28;20140;-67
2020/12/25 07:11:10;;;;;;;2.70;1.63;;;19.40;64.90;;;;;;5014042;28;20042;-67
2020/12/25 07:13:42;;;;;;;5.43;1.48;;;19.40;64.90;;;;;;5004881;28;20049;-65
2020/12/25 07:16:15;;;;;;;1.73;0.82;;;19.40;64.80;;;;;;5007329;28;20141;-65
2020/12/25 07:18:49;;;;;;;1.77;1.10;;;19.40;64.80;;;;;;5018728;28;20041;-67
2020/12/25 07:21:20;;;;;;;2.50;1.23;;;19.40;64.80;;;;;;5010079;28;20070;-67
2020/12/25 07:23:49;;;;;;;4.32;1.23;;;19.50;64.90;;;;;;5011350;28;20042;-68
2020/12/25 07:26:20;;;;;;;1.58;1.05;;;19.40;64.80;;;;;;5017678;28;20053;-67
2020/12/25 07:28:52;;;;;;;2.03;1.17;;;19.50;64.80;;;;;;5008007;28;20041;-67
2020/12/25 07:31:24;;;;;;;2.92;1.20;;;19.50;64.90;;;;;;5009890;28;20533;-66
2020/12/25 07:33:58;;;;;;;1.90;0.90;;;19.50;64.90;;;;;;5015392;28;20124;-67
2020/12/25 07:36:31;;;;;;;4.47;1.25;;;19.50;64.90;;;;;;5015046;28;20041;-66
2020/12/25 07:39:04;;;;;;;1.67;1.00;;;19.50;64.80;;;;;;5014677;28;20104;-66
2020/12/25 07:41:37;;;;;;;2.00;0.90;;;19.50;64.80;;;;;;5009717;28;20522;-65
2020/12/25 07:44:08;;;;;;;2.80;1.48;;;19.50;64.80;;;;;;5012627;28;20037;-66
2020/12/25 07:46:38;;;;;;;3.35;1.13;;;19.50;64.90;;;;;;5006503;28;20049;-66
2020/12/25 07:49:08;;;;;;;1.98;0.88;;;19.60;64.90;;;;;;4991329;28;20529;-67
2020/12/25 07:51:38;;;;;;;1.65;1.10;;;19.50;64.70;;;;;;5009743;28;20078;-67
2020/12/25 07:54:10;;;;;;;3.58;1.10;;;19.50;64.80;;;;;;5013341;28;20239;-69
2020/12/25 07:56:41;;;;;;;;;;;19.50;64.80;;;;;;5016845;28;20041;-68
2020/12/25 07:59:12;;;;;;;2.10;1.13;;;19.60;64.80;;;;;;5007071;28;20177;-68
2020/12/25 08:01:42;;;;;;;3.13;1.20;;;19.60;65.10;;;;;;5004350;28;20406;-67
2020/12/25 08:04:13;;;;;;;1.27;0.80;;;19.50;64.70;;;;;;5003085;28;20572;-66
2020/12/25 08:06:45;;;;;;;2.40;1.02;;;19.50;64.80;;;;;;5009430;28;20490;-67
2020/12/25 08:09:17;;;;;;;1.42;1.00;;;19.60;64.90;;;;;;5013671;28;20041;-68
2020/12/25 08:11:53;;;;;;;2.40;0.82;;;19.60;64.90;;;;;;5006443;28;20397;-68
2020/12/25 08:14:23;;;;;;;5.50;1.25;;;19.60;64.90;;;;;;5016694;28;20042;-65
2020/12/25 08:16:54;;;;;;;2.42;0.85;;;19.50;64.70;;;;;;5001877;28;20056;-66
2020/12/25 08:19:28;;;;;;;3.17;0.93;;;19.60;64.80;;;;;;5013576;28;20044;-67
2020/12/25 08:22:04;;;;;;;3.65;1.52;;;19.50;64.60;;;;;;5009389;28;20048;-67
2020/12/25 08:24:34;;;;;;;1.83;1.00;;;19.50;64.60;;;;;;5004924;28;20556;-67
2020/12/25 08:27:04;;;;;;;4.63;1.02;;;19.50;64.60;;;;;;5004445;28;20050;-66
2020/12/25 08:29:36;;;;;;;2.00;0.93;;;19.50;64.70;;;;;;5007803;28;20064;-66
2020/12/25 08:32:08;;;;;;;2.30;1.10;;;19.50;64.60;;;;;;5012152;28;20050;-66
2020/12/25 08:34:40;;;;;;;3.50;0.82;;;19.50;64.60;;;;;;5022119;28;20493;-67
2020/12/25 08:37:14;;;;;;;3.03;1.40;;;19.50;64.60;;;;;;5002909;28;20663;-67
2020/12/25 08:39:45;;;;;;;2.97;0.90;;;19.50;64.60;;;;;;5011243;28;20059;-66
2020/12/25 08:42:20;;;;;;;1.63;1.00;;;19.50;64.60;;;;;;5015907;28;20042;-66
2020/12/25 08:44:58;;;;;;;3.05;0.80;;;19.50;64.60;;;;;;5017183;28;20068;-66
2020/12/25 08:47:28;;;;;;;2.38;0.75;;;19.50;64.50;;;;;;5017520;28;20132;-67
2020/12/25 08:49:59;;;;;;;;;;;19.50;64.50;;;;;;5008292;28;20109;-68
2020/12/25 08:52:33;;;;;;;2.63;1.25;;;19.50;64.50;;;;;;5011113;28;19926;-66
2020/12/25 08:55:02;;;;;;;4.97;1.40;;;19.50;64.50;;;;;;5013536;28;20580;-67
2020/12/25 08:57:33;;;;;;;3.35;0.90;;;19.40;64.50;;;;;;5011189;28;20049;-65
2020/12/25 09:00:12;;;;;;;4.05;1.00;;;19.40;64.40;;;;;;5008170;28;20030;-66
2020/12/25 09:02:42;;;;;;;1.35;0.73;;;19.50;65.10;;;;;;5008426;28;20573;-66
2020/12/25 09:05:13;;;;;;;3.20;0.90;;;19.40;64.40;;;;;;5020488;28;20108;-66
2020/12/25 09:07:45;;;;;;;1.87;1.00;;;19.40;64.30;;;;;;5014175;28;20330;-65
2020/12/25 09:10:15;;;;;;;4.50;1.05;;;19.40;64.30;;;;;;5008609;28;20525;-66
2020/12/25 09:12:45;;;;;;;1.83;0.73;;;19.40;64.30;;;;;;5019105;28;20041;-66
2020/12/25 09:15:15;;;;;;;2.35;0.70;;;19.40;64.30;;;;;;5012456;28;20050;-65
2020/12/25 09:17:47;;;;;;;2.58;1.17;;;19.40;64.40;;;;;;5020683;28;20091;-67
2020/12/25 09:20:19;;;;;;;2.08;0.90;;;19.40;64.30;;;;;;5017252;28;20037;-66
2020/12/25 09:22:51;;;;;;;2.13;1.00;;;19.40;64.30;;;;;;5012116;28;20436;-66
2020/12/25 09:25:21;;;;;;;1.92;1.05;;;19.40;64.30;;;;;;5011410;28;20360;-66
2020/12/25 09:27:50;;;;;;;1.23;0.70;;;19.40;64.30;;;;;;5018562;28;20148;-66
2020/12/25 09:30:20;;;;;;;1.67;0.80;;;19.40;64.30;;;;;;5013852;28;20157;-66
2020/12/25 09:32:49;;;;;;;3.28;1.33;;;19.40;64.30;;;;;;5010932;28;20052;-66
2020/12/25 09:35:21;;;;;;;1.63;0.80;;;19.40;64.40;;;;;;5013230;28;20063;-66
2020/12/25 09:37:53;;;;;;;5.90;0.90;;;19.30;64.40;;;;;;5022124;28;20135;-66
2020/12/25 09:40:23;;;;;;;4.78;0.80;;;19.40;64.40;;;;;;5012621;28;20050;-65
2020/12/25 09:42:53;;;;;;;1.13;0.70;;;19.30;64.30;;;;;;5011805;28;20094;-66
2020/12/25 09:45:25;;;;;;;3.25;0.95;;;19.30;64.40;;;;;;5012315;28;20045;-66
2020/12/25 09:47:56;;;;;;;5.20;0.90;;;19.30;64.30;;;;;;5009144;28;20051;-66
2020/12/25 09:50:27;;;;;;;4.63;1.38;;;19.30;64.30;;;;;;5016756;28;20050;-66
2020/12/25 09:52:58;;;;;;;1.75;0.85;;;19.30;64.30;;;;;;5007523;28;20489;-66
2020/12/25 09:55:28;;;;;;;1.43;0.70;;;19.30;64.40;;;;;;5007260;28;20050;-64
2020/12/25 09:57:59;;;;;;;3.63;0.98;;;19.30;64.50;;;;;;4994872;28;20386;-65
2020/12/25 10:00:31;;;;;;;;;;;19.30;64.50;;;;;;5017985;28;20053;-65
2020/12/25 10:03:02;;;;;;;2.60;1.00;;;19.20;64.50;;;;;;5007003;28;19925;-65
2020/12/25 10:05:33;;;;;;;4.78;0.70;;;19.30;64.50;;;;;;5005777;28;20049;-66
2020/12/25 10:08:04;;;;;;;4.82;1.08;;;19.20;64.60;;;;;;5016984;28;20056;-66
2020/12/25 10:10:36;;;;;;;3.97;1.20;;;19.20;64.60;;;;;;5015784;28;20049;-66
2020/12/25 10:13:07;;;;;;;1.98;1.33;;;19.20;64.70;;;;;;5012736;28;20064;-66
2020/12/25 10:15:38;;;;;;;3.22;1.08;;;19.20;64.80;;;;;;5004012;28;20060;-68
2020/12/25 10:18:10;;;;;;;5.15;1.00;;;19.20;64.80;;;;;;5005162;28;20498;-67
2020/12/25 10:20:40;;;;;;;5.15;1.35;;;19.20;64.80;;;;;;4991670;28;20484;-66
2020/12/25 10:23:12;;;;;;;3.58;0.80;;;19.20;64.90;;;;;;5012145;28;20038;-66
2020/12/25 10:25:44;;;;;;;3.58;0.88;;;19.20;64.90;;;;;;5012383;28;20061;-65
2020/12/25 10:28:16;;;;;;;3.15;0.90;;;19.10;64.90;;;;;;5012344;28;20045;-66
2020/12/25 10:30:45;;;;;;;3.60;0.80;;;19.10;64.90;;;;;;5017360;28;20049;-66
2020/12/25 10:33:17;;;;;;;2.05;0.80;;;19.10;65.00;;;;;;5004844;28;20096;-65
2020/12/25 10:35:50;;;;;;;1.75;0.73;;;19.10;65.00;;;;;;5008258;28;20045;-66
2020/12/25 10:38:21;;;;;;;3.45;0.75;;;19.10;65.20;;;;;;5006139;28;20056;-66
2020/12/25 10:40:52;;;;;;;2.78;0.70;;;19.10;65.20;;;;;;5012941;28;20045;-65
2020/12/25 10:43:23;;;;;;;1.55;0.82;;;19.10;65.20;;;;;;5013269;28;20048;-66
2020/12/25 10:45:53;;;;;;;2.92;0.90;;;19.10;65.20;;;;;;5004481;28;20045;-66
2020/12/25 10:48:24;;;;;;;;;;;19.00;65.20;;;;;;5007519;28;20052;-67
2020/12/25 10:50:56;;;;;;;;;;;19.00;65.30;;;;;;5011151;28;20382;-65
2020/12/25 10:53:27;;;;;;;4.22;1.05;;;19.00;65.40;;;;;;5018802;28;19970;-66
2020/12/25 10:55:59;;;;;;;1.58;0.70;;;19.00;65.40;;;;;;5009198;28;20124;-66
2020/12/25 10:58:31;;;;;;;1.85;0.70;;;19.00;65.60;;;;;;5010639;28;20069;-65
2020/12/25 11:01:01;;;;;;;1.73;0.85;;;19.00;65.60;;;;;;5008701;28;20042;-67
2020/12/25 11:03:32;;;;;;;1.23;0.93;;;18.90;65.60;;;;;;5009618;28;20103;-63
2020/12/25 11:06:03;;;;;;;3.13;0.90;;;18.90;65.60;;;;;;5007150;28;20046;-65
2020/12/25 11:08:34;;;;;;;1.13;0.75;;;18.90;65.70;;;;;;4989412;28;20060;-66
2020/12/25 11:11:07;;;;;;;0.57;0.57;;;18.90;65.70;;;;;;5008832;28;22750;-67
2020/12/25 11:13:36;;;;;;;;;;;18.90;65.80;;;;;;5005684;28;20129;-65
2020/12/25 11:16:07;;;;;;;4.15;0.60;;;18.90;65.80;;;;;;5010798;28;20427;-67
2020/12/25 11:18:41;;;;;;;1.63;0.60;;;18.80;65.70;;;;;;5008398;28;20433;-66
2020/12/25 11:21:21;;;;;;;2.03;0.88;;;18.80;65.90;;;;;;5008935;28;20061;-65
2020/12/25 11:23:52;;;;;;;2.40;0.63;;;18.80;66.70;;;;;;5016316;28;20258;-66
2020/12/25 11:26:27;;;;;;;1.30;0.57;;;18.80;66.10;;;;;;5010413;28;20049;-66
2020/12/25 11:29:00;;;;;;;1.15;0.57;;;18.80;66.20;;;;;;4994812;28;20123;-65
2020/12/25 11:31:31;;;;;;;1.10;0.70;;;18.70;66.30;;;;;;5008785;28;20042;-64
2020/12/25 11:34:02;;;;;;;2.08;0.90;;;18.70;66.40;;;;;;5013062;28;20049;-66
2020/12/25 11:36:37;;;;;;;2.00;0.60;;;18.70;66.40;;;;;;4988468;28;20500;-65
2020/12/25 11:39:11;;;;;;;0.60;0.55;;;18.70;66.50;;;;;;4993776;28;20701;-66
2020/12/25 11:41:41;;;;;;;2.05;0.80;;;18.70;66.60;;;;;;5004576;28;20056;-66
2020/12/25 11:44:13;;;;;;;2.47;1.02;;;18.70;66.60;;;;;;5011295;28;20065;-66
2020/12/25 11:46:44;;;;;;;3.28;0.90;;;18.70;66.70;;;;;;5016148;28;20111;-66
2020/12/25 11:49:15;;;;;;;0.82;0.50;;;18.60;66.70;;;;;;5012261;28;20049;-66
2020/12/25 11:51:48;;;;;;;2.92;0.73;;;18.70;66.90;;;;;;5015545;28;20088;-66
2020/12/25 11:54:19;;;;;;;1.27;0.90;;;18.60;66.80;;;;;;5016759;28;20112;-65
2020/12/25 11:56:53;;;;;;;1.17;0.60;;;18.60;66.80;;;;;;5009108;28;20136;-66
2020/12/25 11:59:25;;;;;;;2.70;0.73;;;18.60;66.90;;;;;;5002152;28;20116;-65
2020/12/25 12:01:55;;;;;;;0.95;0.60;;;18.60;67.00;;;;;;5009413;28;20065;-64
2020/12/25 12:04:25;;;;;;;1.00;0.40;;;18.60;67.00;;;;;;5001260;28;20498;-66
2020/12/25 12:07:01;;;;;;;0.98;0.75;;;18.50;67.00;;;;;;5009486;28;20364;-64
2020/12/25 12:09:32;;;;;;;1.13;0.60;;;18.50;67.10;;;;;;5009183;28;20041;-65
2020/12/25 12:12:06;;;;;;;1.33;0.70;;;18.50;67.10;;;;;;5009097;28;20052;-65
2020/12/25 12:14:36;;;;;;;0.82;0.60;;;18.50;67.10;;;;;;5008330;28;20438;-66
2020/12/25 12:17:06;;;;;;;1.65;0.80;;;18.50;67.20;;;;;;5007813;28;20049;-64
2020/12/25 12:19:39;;;;;;;1.40;0.70;;;18.40;67.10;;;;;;5012469;28;20070;-65
2020/12/25 12:22:10;;;;;;;1.42;0.82;;;18.50;67.30;;;;;;5017690;28;20029;-63
2020/12/25 12:24:40;;;;;;;1.83;0.63;;;18.40;67.20;;;;;;5009607;28;20050;-65
2020/12/25 12:27:09;;;;;;;0.65;0.50;;;18.40;67.40;;;;;;5014762;28;20045;-64
2020/12/25 12:29:39;;;;;;;0.90;0.77;;;18.40;67.30;;;;;;5009889;28;20054;-65
2020/12/25 12:32:10;;;;;;;1.90;0.73;;;18.40;67.40;;;;;;5006452;28;20525;-64
2020/12/25 12:34:41;;;;;;;0.65;0.52;;;18.40;67.50;;;;;;5008852;28;20129;-65
2020/12/25 12:37:12;;;;;;;1.90;0.63;;;18.30;67.40;;;;;;5012091;28;20121;-63
2020/12/25 12:39:45;;;;;;;;;;;18.30;67.40;;;;;;5014422;28;20061;-64
2020/12/25 12:42:16;;;;;;;2.65;0.80;;;18.30;67.40;;;;;;5008785;28;19925;-63
2020/12/25 12:44:47;;;;;;;0.50;0.50;;;18.30;67.60;;;;;;5007595;28;20038;-64
2020/12/25 12:47:16;;;;;;;1.00;0.40;;;18.30;67.60;;;;;;5005755;28;20057;-67
2020/12/25 12:49:47;;;;;;;2.33;0.80;;;18.20;67.50;;;;;;5012306;28;20069;-64
2020/12/25 12:52:19;;;;;;;1.13;0.82;;;18.20;68.00;;;;;;5001805;28;20077;-64
2020/12/25 12:54:49;;;;;;;;;;;18.20;67.90;;;;;;5006197;28;20042;-65
2020/12/25 12:57:20;;;;;;;2.08;0.52;;;18.20;67.70;;;;;;5011279;28;20267;-65
2020/12/25 12:59:50;;;;;;;;;;;18.20;67.80;;;;;;5010577;28;20439;-64
2020/12/25 13:02:20;;;;;;;1.08;0.60;;;18.20;67.70;;;;;;5010822;28;20440;-63
2020/12/25 13:04:50;;;;;;;0.70;0.60;;;18.10;67.80;;;;;;5006591;28;20046;-64
2020/12/25 13:07:21;;;;;;;0.80;0.80;;;18.10;67.90;;;;;;5008894;28;20065;-64
2020/12/25 13:09:53;;;;;;;2.05;0.60;;;18.10;67.90;;;;;;5021963;28;20045;-66
2020/12/25 13:12:23;;;;;;;1.13;0.60;;;18.10;68.00;;;;;;5011726;28;20486;-64
2020/12/25 13:14:53;;;;;;;1.33;0.63;;;18.10;68.00;;;;;;5007480;28;20054;-65